sensor_id;sensor_type;location;lat;lon;timestamp;pressure;altitude;pressure_sealevel;temperature;humidity
19672;BME280;9983;51.114;13.788;2023-03-19T00:04:20;99169.72;;;12.65;46.11
19672;BME280;9983;51.114;13.788;2023-03-19T00:09:21;99167.34;;;12.55;46.13
19672;BME280;9983;51.114;13.788;2023-03-19T00:14:21;99168.00;;;12.30;46.87
19672;BME280;9983;51.114;13.788;2023-03-19T00:19:22;99167.63;;;12.39;46.65
19672;BME280;9983;51.114;13.788;2023-03-19T00:24:22;99166.59;;;12.62;45.92
19672;BME280;9983;51.114;13.788;2023-03-19T00:29:22;99159.94;;;12.58;45.82
19672;BME280;9983;51.114;13.788;2023-03-19T00:34:22;99160.69;;;12.45;46.09
19672;BME280;9983;51.114;13.788;2023-03-19T00:39:23;99154.47;;;12.44;46.58
19672;BME280;9983;51.114;13.788;2023-03-19T00:44:23;99157.16;;;12.23;47.18
19672;BME280;9983;51.114;13.788;2023-03-19T00:49:23;99163.50;;;12.37;46.54
19672;BME280;9983;51.114;13.788;2023-03-19T00:54:24;99164.66;;;12.28;46.70
19672;BME280;9983;51.114;13.788;2023-03-19T00:59:24;99167.63;;;12.11;48.17
19672;BME280;9983;51.114;13.788;2023-03-19T01:04:25;99161.47;;;12.18;47.31
19672;BME280;9983;51.114;13.788;2023-03-19T01:09:25;99159.28;;;12.06;46.80
19672;BME280;9983;51.114;13.788;2023-03-19T01:14:25;99163.63;;;12.07;47.47
19672;BME280;9983;51.114;13.788;2023-03-19T01:19:26;99157.88;;;12.10;46.94
19672;BME280;9983;51.114;13.788;2023-03-19T01:24:30;99154.03;;;11.98;47.74
19672;BME280;9983;51.114;13.788;2023-03-19T01:29:30;99146.88;;;11.84;48.79
19672;BME280;9983;51.114;13.788;2023-03-19T01:34:31;99154.72;;;11.50;49.40
19672;BME280;9983;51.114;13.788;2023-03-19T01:39:31;99152.41;;;11.47;50.10
19672;BME280;9983;51.114;13.788;2023-03-19T01:44:33;99142.72;;;11.46;49.42
19672;BME280;9983;51.114;13.788;2023-03-19T01:49:34;99152.22;;;11.48;49.53
19672;BME280;9983;51.114;13.788;2023-03-19T01:54:35;99136.34;;;11.68;49.01
19672;BME280;9983;51.114;13.788;2023-03-19T01:59:39;99141.72;;;11.68;49.85
19672;BME280;9983;51.114;13.788;2023-03-19T02:04:42;99156.84;;;11.39;50.78
19672;BME280;9983;51.114;13.788;2023-03-19T02:09:44;99169.94;;;11.13;50.44
19672;BME280;9983;51.114;13.788;2023-03-19T02:14:44;99162.50;;;11.45;50.39
19672;BME280;9983;51.114;13.788;2023-03-19T02:25:05;99139.69;;;11.70;48.36
19672;BME280;9983;51.114;13.788;2023-03-19T02:30:35;99135.03;;;11.43;49.47
19672;BME280;9983;51.114;13.788;2023-03-19T02:35:36;99144.16;;;11.63;49.33
19672;BME280;9983;51.114;13.788;2023-03-19T02:40:42;99147.69;;;11.49;48.73
19672;BME280;9983;51.114;13.788;2023-03-19T02:45:43;99150.38;;;11.49;48.90
19672;BME280;9983;51.114;13.788;2023-03-19T02:50:44;99140.03;;;11.67;48.59
19672;BME280;9983;51.114;13.788;2023-03-19T02:55:45;99141.19;;;11.58;48.90
19672;BME280;9983;51.114;13.788;2023-03-19T03:00:46;99147.25;;;11.30;49.71
19672;BME280;9983;51.114;13.788;2023-03-19T03:05:46;99140.50;;;11.34;49.33
19672;BME280;9983;51.114;13.788;2023-03-19T03:10:47;99146.22;;;11.31;49.46
19672;BME280;9983;51.114;13.788;2023-03-19T03:15:47;99149.34;;;11.50;49.47
19672;BME280;9983;51.114;13.788;2023-03-19T03:20:47;99165.50;;;11.20;49.69
19672;BME280;9983;51.114;13.788;2023-03-19T03:25:49;99188.78;;;11.05;49.72
19672;BME280;9983;51.114;13.788;2023-03-19T03:30:49;99180.38;;;11.37;49.63
19672;BME280;9983;51.114;13.788;2023-03-19T03:35:50;99177.84;;;11.51;49.35
19672;BME280;9983;51.114;13.788;2023-03-19T03:40:51;99183.28;;;11.21;51.52
19672;BME280;9983;51.114;13.788;2023-03-19T03:45:51;99182.88;;;11.24;50.83
19672;BME280;9983;51.114;13.788;2023-03-19T03:50:52;99179.09;;;11.33;51.94
19672;BME280;9983;51.114;13.788;2023-03-19T03:55:52;99190.97;;;10.57;53.55
19672;BME280;9983;51.114;13.788;2023-03-19T04:00:53;99177.34;;;11.11;51.96
19672;BME280;9983;51.114;13.788;2023-03-19T04:05:54;99182.28;;;10.55;55.50
19672;BME280;9983;51.114;13.788;2023-03-19T04:10:54;99170.03;;;10.90;52.19
19672;BME280;9983;51.114;13.788;2023-03-19T04:15:55;99186.34;;;10.51;54.13
19672;BME280;9983;51.114;13.788;2023-03-19T04:20:55;99180.47;;;10.71;51.81
19672;BME280;9983;51.114;13.788;2023-03-19T04:25:57;99172.53;;;10.92;51.15
19672;BME280;9983;51.114;13.788;2023-03-19T04:31:03;99174.84;;;10.95;51.81
19672;BME280;9983;51.114;13.788;2023-03-19T04:36:04;99168.47;;;10.96;51.09
19672;BME280;9983;51.114;13.788;2023-03-19T04:41:05;99176.75;;;10.72;50.84
19672;BME280;9983;51.114;13.788;2023-03-19T04:46:05;99169.44;;;10.80;51.20
19672;BME280;9983;51.114;13.788;2023-03-19T04:51:07;99170.28;;;10.81;51.12
19672;BME280;9983;51.114;13.788;2023-03-19T04:56:10;99179.72;;;11.06;49.60
19672;BME280;9983;51.114;13.788;2023-03-19T05:01:10;99174.94;;;10.87;50.71
19672;BME280;9983;51.114;13.788;2023-03-19T05:06:10;99175.03;;;10.79;49.38
19672;BME280;9983;51.114;13.788;2023-03-19T05:11:11;99175.28;;;10.54;49.74
19672;BME280;9983;51.114;13.788;2023-03-19T05:16:11;99180.31;;;10.87;49.72
19672;BME280;9983;51.114;13.788;2023-03-19T05:21:12;99180.56;;;10.92;49.31
19672;BME280;9983;51.114;13.788;2023-03-19T05:26:13;99185.84;;;10.71;50.13
19672;BME280;9983;51.114;13.788;2023-03-19T05:31:14;99181.75;;;10.75;49.36
19672;BME280;9983;51.114;13.788;2023-03-19T05:36:15;99184.09;;;10.78;48.93
19672;BME280;9983;51.114;13.788;2023-03-19T05:41:15;99184.00;;;10.86;49.19
19672;BME280;9983;51.114;13.788;2023-03-19T05:46:16;99178.25;;;10.89;48.93
19672;BME280;9983;51.114;13.788;2023-03-19T05:51:16;99191.03;;;10.87;49.34
19672;BME280;9983;51.114;13.788;2023-03-19T05:56:16;99193.81;;;10.79;49.64
19672;BME280;9983;51.114;13.788;2023-03-19T06:01:17;99195.44;;;10.80;49.78
19672;BME280;9983;51.114;13.788;2023-03-19T06:06:17;99199.16;;;10.79;49.25
19672;BME280;9983;51.114;13.788;2023-03-19T06:11:18;99209.72;;;10.95;48.59
19672;BME280;9983;51.114;13.788;2023-03-19T06:16:18;99205.22;;;10.73;48.72
19672;BME280;9983;51.114;13.788;2023-03-19T06:21:18;99207.66;;;10.97;49.14
19672;BME280;9983;51.114;13.788;2023-03-19T06:26:19;99203.53;;;11.09;48.60
19672;BME280;9983;51.114;13.788;2023-03-19T06:31:19;99202.94;;;11.14;48.52
19672;BME280;9983;51.114;13.788;2023-03-19T06:36:20;99195.28;;;11.25;48.25
19672;BME280;9983;51.114;13.788;2023-03-19T06:41:20;99200.91;;;11.30;48.81
19672;BME280;9983;51.114;13.788;2023-03-19T06:46:21;99199.81;;;11.10;47.94
19672;BME280;9983;51.114;13.788;2023-03-19T06:51:21;99202.13;;;11.43;47.26
19672;BME280;9983;51.114;13.788;2023-03-19T06:56:21;99201.84;;;11.52;47.29
19672;BME280;9983;51.114;13.788;2023-03-19T07:01:21;99205.31;;;11.67;47.40
19672;BME280;9983;51.114;13.788;2023-03-19T07:06:22;99209.09;;;11.73;46.71
19672;BME280;9983;51.114;13.788;2023-03-19T07:11:22;99218.28;;;12.14;46.49
19672;BME280;9983;51.114;13.788;2023-03-19T07:16:22;99221.34;;;12.33;46.48
19672;BME280;9983;51.114;13.788;2023-03-19T07:21:23;99229.56;;;12.46;45.38
19672;BME280;9983;51.114;13.788;2023-03-19T07:26:23;99234.53;;;12.70;45.29
19672;BME280;9983;51.114;13.788;2023-03-19T07:31:23;99238.00;;;12.92;44.59
19672;BME280;9983;51.114;13.788;2023-03-19T07:36:23;99242.41;;;13.00;44.83
19672;BME280;9983;51.114;13.788;2023-03-19T07:41:24;99241.88;;;13.11;44.56
19672;BME280;9983;51.114;13.788;2023-03-19T07:46:25;99232.50;;;13.28;43.30
19672;BME280;9983;51.114;13.788;2023-03-19T07:51:25;99236.09;;;13.48;44.17
19672;BME280;9983;51.114;13.788;2023-03-19T07:56:26;99234.53;;;13.60;42.70
19672;BME280;9983;51.114;13.788;2023-03-19T08:01:26;99231.81;;;13.60;43.16
19672;BME280;9983;51.114;13.788;2023-03-19T08:06:26;99220.38;;;13.45;43.53
19672;BME280;9983;51.114;13.788;2023-03-19T08:11:26;99223.69;;;13.95;42.81
19672;BME280;9983;51.114;13.788;2023-03-19T08:16:28;99224.63;;;14.41;42.08
19672;BME280;9983;51.114;13.788;2023-03-19T08:21:29;99237.91;;;14.50;42.79
19672;BME280;9983;51.114;13.788;2023-03-19T08:26:32;99229.34;;;14.33;41.86
19672;BME280;9983;51.114;13.788;2023-03-19T08:31:32;99226.75;;;14.79;42.03
19672;BME280;9983;51.114;13.788;2023-03-19T08:36:33;99226.34;;;14.89;41.62
19672;BME280;9983;51.114;13.788;2023-03-19T08:41:33;99243.31;;;15.29;40.65
19672;BME280;9983;51.114;13.788;2023-03-19T08:46:33;99236.41;;;15.46;40.98
19672;BME280;9983;51.114;13.788;2023-03-19T08:51:34;99244.09;;;15.62;40.21
19672;BME280;9983;51.114;13.788;2023-03-19T08:56:34;99232.59;;;15.80;40.20
19672;BME280;9983;51.114;13.788;2023-03-19T09:01:34;99244.94;;;15.56;39.59
19672;BME280;9983;51.114;13.788;2023-03-19T09:06:35;99237.72;;;15.94;40.13
19672;BME280;9983;51.114;13.788;2023-03-19T09:11:35;99244.19;;;16.25;39.26
19672;BME280;9983;51.114;13.788;2023-03-19T09:16:36;99244.94;;;16.45;38.61
19672;BME280;9983;51.114;13.788;2023-03-19T09:21:36;99249.75;;;16.37;39.31
19672;BME280;9983;51.114;13.788;2023-03-19T09:26:36;99244.44;;;16.61;38.54
19672;BME280;9983;51.114;13.788;2023-03-19T09:31:37;99242.63;;;16.11;38.28
19672;BME280;9983;51.114;13.788;2023-03-19T09:36:37;99255.91;;;16.19;38.98
19672;BME280;9983;51.114;13.788;2023-03-19T09:42:07;99262.19;;;16.44;38.38
19672;BME280;9983;51.114;13.788;2023-03-19T09:52:33;99235.91;;;16.83;38.46
19672;BME280;9983;51.114;13.788;2023-03-19T09:57:38;99233.84;;;17.28;38.00
19672;BME280;9983;51.114;13.788;2023-03-19T10:02:40;99230.41;;;17.39;37.50
19672;BME280;9983;51.114;13.788;2023-03-19T10:08:03;99232.63;;;17.67;37.49
19672;BME280;9983;51.114;13.788;2023-03-19T10:18:26;99237.44;;;18.43;37.34
19672;BME280;9983;51.114;13.788;2023-03-19T10:23:36;99221.31;;;18.48;36.22
19672;BME280;9983;51.114;13.788;2023-03-19T10:28:41;99222.72;;;18.80;35.83
19672;BME280;9983;51.114;13.788;2023-03-19T10:34:04;99224.09;;;18.71;36.07
19672;BME280;9983;51.114;13.788;2023-03-19T10:39:14;99232.81;;;19.50;36.47
19672;BME280;9983;51.114;13.788;2023-03-19T10:44:31;99221.72;;;19.80;35.21
19672;BME280;9983;51.114;13.788;2023-03-19T10:49:34;99224.00;;;19.59;35.63
19672;BME280;9983;51.114;13.788;2023-03-19T10:54:38;99220.75;;;19.86;35.80
19672;BME280;9983;51.114;13.788;2023-03-19T10:59:39;99222.34;;;20.10;35.46
19672;BME280;9983;51.114;13.788;2023-03-19T11:04:39;99218.66;;;20.44;34.85
19672;BME280;9983;51.114;13.788;2023-03-19T11:09:41;99213.88;;;20.23;34.76
19672;BME280;9983;51.114;13.788;2023-03-19T11:14:46;99221.91;;;20.30;34.91
19672;BME280;9983;51.114;13.788;2023-03-19T11:19:51;99210.63;;;20.83;33.70
19672;BME280;9983;51.114;13.788;2023-03-19T11:24:56;99214.56;;;21.09;34.28
19672;BME280;9983;51.114;13.788;2023-03-19T11:30:12;99215.00;;;21.56;32.83
19672;BME280;9983;51.114;13.788;2023-03-19T11:40:30;99209.44;;;21.12;33.65
19672;BME280;9983;51.114;13.788;2023-03-19T11:45:59;99206.25;;;21.54;34.27
19672;BME280;9983;51.114;13.788;2023-03-19T11:51:43;99196.59;;;21.68;34.20
19672;BME280;9983;51.114;13.788;2023-03-19T11:56:59;99197.44;;;22.39;32.93
19672;BME280;9983;51.114;13.788;2023-03-19T12:17:57;99184.94;;;23.12;32.07
19672;BME280;9983;51.114;13.788;2023-03-19T12:23:28;99180.03;;;23.09;31.84
19672;BME280;9983;51.114;13.788;2023-03-19T12:28:42;99188.22;;;22.77;33.04
19672;BME280;9983;51.114;13.788;2023-03-19T12:39:31;99187.91;;;21.71;34.87
19672;BME280;9983;51.114;13.788;2023-03-19T12:44:36;99186.50;;;21.08;36.12
19672;BME280;9983;51.114;13.788;2023-03-19T12:55:32;99185.50;;;20.81;35.20
19672;BME280;9983;51.114;13.788;2023-03-19T13:00:55;99179.41;;;20.74;36.35
19672;BME280;9983;51.114;13.788;2023-03-19T13:06:04;99186.56;;;20.18;35.94
19672;BME280;9983;51.114;13.788;2023-03-19T13:11:16;99188.66;;;20.73;35.67
19672;BME280;9983;51.114;13.788;2023-03-19T13:16:40;99186.81;;;20.95;34.00
19672;BME280;9983;51.114;13.788;2023-03-19T13:21:43;99188.31;;;20.53;35.31
19672;BME280;9983;51.114;13.788;2023-03-19T13:26:46;99192.44;;;20.72;34.69
19672;BME280;9983;51.114;13.788;2023-03-19T13:31:48;99202.22;;;20.11;35.73
19672;BME280;9983;51.114;13.788;2023-03-19T13:37:11;99189.38;;;19.43;36.64
19672;BME280;9983;51.114;13.788;2023-03-19T13:47:41;99191.16;;;20.18;36.40
19672;BME280;9983;51.114;13.788;2023-03-19T13:57:53;99185.69;;;19.73;36.39
19672;BME280;9983;51.114;13.788;2023-03-19T14:03:00;99186.84;;;19.77;37.32
19672;BME280;9983;51.114;13.788;2023-03-19T14:08:14;99186.09;;;18.94;38.33
19672;BME280;9983;51.114;13.788;2023-03-19T14:13:31;99193.75;;;19.44;37.63
19672;BME280;9983;51.114;13.788;2023-03-19T14:18:37;99182.91;;;19.32;38.01
19672;BME280;9983;51.114;13.788;2023-03-19T14:23:40;99188.81;;;19.18;38.22
19672;BME280;9983;51.114;13.788;2023-03-19T14:29:00;99185.59;;;19.96;36.87
19672;BME280;9983;51.114;13.788;2023-03-19T14:34:25;99186.38;;;20.08;37.08
19672;BME280;9983;51.114;13.788;2023-03-19T14:39:49;99199.41;;;20.06;36.79
19672;BME280;9983;51.114;13.788;2023-03-19T14:55:35;99193.75;;;19.96;36.89
19672;BME280;9983;51.114;13.788;2023-03-19T15:00:41;99190.19;;;20.07;37.04
19672;BME280;9983;51.114;13.788;2023-03-19T15:05:42;99187.13;;;19.92;37.54
19672;BME280;9983;51.114;13.788;2023-03-19T15:10:53;99197.16;;;19.75;37.84
19672;BME280;9983;51.114;13.788;2023-03-19T15:21:15;99193.75;;;19.96;37.89
19672;BME280;9983;51.114;13.788;2023-03-19T15:26:28;99194.38;;;19.23;40.24
19672;BME280;9983;51.114;13.788;2023-03-19T15:31:46;99200.97;;;19.27;39.64
19672;BME280;9983;51.114;13.788;2023-03-19T15:36:51;99202.75;;;18.45;42.18
19672;BME280;9983;51.114;13.788;2023-03-19T15:41:53;99204.63;;;18.33;46.65
19672;BME280;9983;51.114;13.788;2023-03-19T15:46:56;99203.78;;;18.62;48.54
19672;BME280;9983;51.114;13.788;2023-03-19T15:52:01;99217.13;;;18.04;54.63
19672;BME280;9983;51.114;13.788;2023-03-19T15:57:04;99216.03;;;17.57;59.68
19672;BME280;9983;51.114;13.788;2023-03-19T16:02:15;99217.84;;;17.44;62.27
19672;BME280;9983;51.114;13.788;2023-03-19T16:07:24;99228.03;;;17.24;64.29
19672;BME280;9983;51.114;13.788;2023-03-19T16:12:37;99237.53;;;17.33;65.48
19672;BME280;9983;51.114;13.788;2023-03-19T16:17:38;99247.94;;;17.36;65.44
19672;BME280;9983;51.114;13.788;2023-03-19T16:22:38;99241.78;;;16.48;68.19
19672;BME280;9983;51.114;13.788;2023-03-19T16:27:40;99261.69;;;16.29;69.31
19672;BME280;9983;51.114;13.788;2023-03-19T16:32:41;99255.81;;;16.32;70.98
19672;BME280;9983;51.114;13.788;2023-03-19T16:37:43;99262.06;;;16.32;71.96
19672;BME280;9983;51.114;13.788;2023-03-19T16:42:50;99269.97;;;16.34;71.85
19672;BME280;9983;51.114;13.788;2023-03-19T16:47:53;99276.84;;;15.85;76.19
19672;BME280;9983;51.114;13.788;2023-03-19T16:52:54;99288.03;;;15.96;76.84
19672;BME280;9983;51.114;13.788;2023-03-19T16:57:57;99288.53;;;15.79;79.43
19672;BME280;9983;51.114;13.788;2023-03-19T17:02:59;99310.16;;;15.79;79.21
19672;BME280;9983;51.114;13.788;2023-03-19T17:07:59;99294.13;;;15.78;80.51
19672;BME280;9983;51.114;13.788;2023-03-19T17:13:00;99304.91;;;15.84;80.24
19672;BME280;9983;51.114;13.788;2023-03-19T17:18:02;99303.16;;;15.12;85.14
19672;BME280;9983;51.114;13.788;2023-03-19T17:23:12;99307.28;;;15.08;85.17
19672;BME280;9983;51.114;13.788;2023-03-19T17:28:13;99308.53;;;15.45;84.32
19672;BME280;9983;51.114;13.788;2023-03-19T17:33:25;99320.56;;;15.49;83.86
19672;BME280;9983;51.114;13.788;2023-03-19T17:38:31;99314.34;;;15.62;82.57
19672;BME280;9983;51.114;13.788;2023-03-19T17:43:32;99321.75;;;15.86;81.11
19672;BME280;9983;51.114;13.788;2023-03-19T17:48:32;99312.69;;;15.48;84.58
19672;BME280;9983;51.114;13.788;2023-03-19T17:53:32;99314.34;;;15.36;83.45
19672;BME280;9983;51.114;13.788;2023-03-19T17:58:33;99317.25;;;15.47;83.67
19672;BME280;9983;51.114;13.788;2023-03-19T18:03:34;99321.00;;;15.60;82.89
19672;BME280;9983;51.114;13.788;2023-03-19T18:08:35;99315.19;;;15.16;85.40
19672;BME280;9983;51.114;13.788;2023-03-19T18:13:35;99327.63;;;15.70;82.00
19672;BME280;9983;51.114;13.788;2023-03-19T18:18:35;99326.78;;;15.50;84.91
19672;BME280;9983;51.114;13.788;2023-03-19T18:23:36;99333.28;;;15.55;84.47
19672;BME280;9983;51.114;13.788;2023-03-19T18:28:37;99323.91;;;15.45;83.81
19672;BME280;9983;51.114;13.788;2023-03-19T18:33:37;99330.97;;;15.33;84.88
19672;BME280;9983;51.114;13.788;2023-03-19T18:38:38;99330.13;;;14.99;86.74
19672;BME280;9983;51.114;13.788;2023-03-19T18:43:39;99328.50;;;15.05;86.58
19672;BME280;9983;51.114;13.788;2023-03-19T18:48:39;99344.94;;;14.36;96.61
19672;BME280;9983;51.114;13.788;2023-03-19T18:53:40;99334.69;;;14.79;96.65
19672;BME280;9983;51.114;13.788;2023-03-19T18:58:40;99340.53;;;14.89;96.47
19672;BME280;9983;51.114;13.788;2023-03-19T19:03:41;99349.25;;;14.98;95.67
19672;BME280;9983;51.114;13.788;2023-03-19T19:08:42;99343.81;;;14.85;95.73
19672;BME280;9983;51.114;13.788;2023-03-19T19:13:47;99336.31;;;14.60;100.00
19672;BME280;9983;51.114;13.788;2023-03-19T19:18:48;99337.22;;;15.13;96.41
19672;BME280;9983;51.114;13.788;2023-03-19T19:23:49;99346.97;;;14.95;99.84
19672;BME280;9983;51.114;13.788;2023-03-19T19:28:49;99353.69;;;14.45;100.00
19672;BME280;9983;51.114;13.788;2023-03-19T19:33:50;99365.06;;;13.99;100.00
19672;BME280;9983;51.114;13.788;2023-03-19T19:38:50;99352.44;;;14.40;100.00
19672;BME280;9983;51.114;13.788;2023-03-19T19:43:52;99366.41;;;14.16;100.00
19672;BME280;9983;51.114;13.788;2023-03-19T19:48:55;99361.09;;;14.29;100.00
19672;BME280;9983;51.114;13.788;2023-03-19T19:53:55;99366.78;;;14.06;100.00
19672;BME280;9983;51.114;13.788;2023-03-19T19:58:56;99359.13;;;14.58;100.00
19672;BME280;9983;51.114;13.788;2023-03-19T20:03:56;99369.06;;;13.68;100.00
19672;BME280;9983;51.114;13.788;2023-03-19T20:08:57;99366.78;;;14.48;100.00
19672;BME280;9983;51.114;13.788;2023-03-19T20:13:57;99377.34;;;14.42;100.00
19672;BME280;9983;51.114;13.788;2023-03-19T20:18:58;99379.91;;;13.82;100.00
19672;BME280;9983;51.114;13.788;2023-03-19T20:23:58;99375.13;;;14.18;100.00
19672;BME280;9983;51.114;13.788;2023-03-19T20:28:58;99381.34;;;14.12;100.00
19672;BME280;9983;51.114;13.788;2023-03-19T20:33:58;99384.72;;;13.58;100.00
19672;BME280;9983;51.114;13.788;2023-03-19T20:38:59;99380.84;;;13.67;100.00
19672;BME280;9983;51.114;13.788;2023-03-19T20:44:01;99377.63;;;14.13;100.00
19672;BME280;9983;51.114;13.788;2023-03-19T20:49:02;99383.22;;;13.84;100.00
19672;BME280;9983;51.114;13.788;2023-03-19T20:54:02;99384.75;;;13.65;100.00
19672;BME280;9983;51.114;13.788;2023-03-19T20:59:04;99377.47;;;13.59;100.00
19672;BME280;9983;51.114;13.788;2023-03-19T21:04:04;99383.13;;;13.64;100.00
19672;BME280;9983;51.114;13.788;2023-03-19T21:09:05;99384.91;;;13.29;100.00
19672;BME280;9983;51.114;13.788;2023-03-19T21:14:05;99375.91;;;13.43;100.00
19672;BME280;9983;51.114;13.788;2023-03-19T21:19:05;99379.63;;;13.42;100.00
19672;BME280;9983;51.114;13.788;2023-03-19T21:24:18;99380.50;;;13.49;100.00
19672;BME280;9983;51.114;13.788;2023-03-19T21:29:30;99376.22;;;13.55;100.00
19672;BME280;9983;51.114;13.788;2023-03-19T21:34:34;99370.19;;;13.04;100.00
19672;BME280;9983;51.114;13.788;2023-03-19T21:39:34;99369.28;;;12.97;100.00
19672;BME280;9983;51.114;13.788;2023-03-19T21:44:35;99366.66;;;13.03;100.00
19672;BME280;9983;51.114;13.788;2023-03-19T21:49:36;99383.34;;;12.99;100.00
19672;BME280;9983;51.114;13.788;2023-03-19T21:54:37;99376.94;;;13.00;100.00
19672;BME280;9983;51.114;13.788;2023-03-19T21:59:37;99377.66;;;13.08;100.00
19672;BME280;9983;51.114;13.788;2023-03-19T22:04:39;99372.84;;;12.82;100.00
19672;BME280;9983;51.114;13.788;2023-03-19T22:09:39;99378.38;;;12.96;100.00
19672;BME280;9983;51.114;13.788;2023-03-19T22:14:39;99377.91;;;12.92;100.00
19672;BME280;9983;51.114;13.788;2023-03-19T22:19:40;99381.56;;;12.84;100.00
19672;BME280;9983;51.114;13.788;2023-03-19T22:24:41;99376.72;;;12.23;100.00
19672;BME280;9983;51.114;13.788;2023-03-19T22:29:41;99384.75;;;12.73;100.00
19672;BME280;9983;51.114;13.788;2023-03-19T22:34:42;99388.22;;;12.16;100.00
19672;BME280;9983;51.114;13.788;2023-03-19T22:39:42;99383.72;;;11.88;100.00
19672;BME280;9983;51.114;13.788;2023-03-19T22:44:43;99386.81;;;11.62;100.00
19672;BME280;9983;51.114;13.788;2023-03-19T22:49:43;99388.00;;;11.74;100.00
19672;BME280;9983;51.114;13.788;2023-03-19T22:54:44;99393.03;;;12.06;100.00
19672;BME280;9983;51.114;13.788;2023-03-19T22:59:44;99385.84;;;11.92;100.00
19672;BME280;9983;51.114;13.788;2023-03-19T23:04:44;99373.63;;;12.04;100.00
19672;BME280;9983;51.114;13.788;2023-03-19T23:09:45;99381.78;;;11.96;100.00
19672;BME280;9983;51.114;13.788;2023-03-19T23:14:45;99384.34;;;12.04;100.00
19672;BME280;9983;51.114;13.788;2023-03-19T23:19:45;99380.13;;;11.72;100.00
19672;BME280;9983;51.114;13.788;2023-03-19T23:24:46;99375.19;;;11.47;100.00
19672;BME280;9983;51.114;13.788;2023-03-19T23:29:46;99377.59;;;11.41;100.00
19672;BME280;9983;51.114;13.788;2023-03-19T23:34:46;99378.38;;;11.65;100.00
19672;BME280;9983;51.114;13.788;2023-03-19T23:39:47;99384.84;;;11.56;100.00
19672;BME280;9983;51.114;13.788;2023-03-19T23:44:47;99367.63;;;11.65;100.00
19672;BME280;9983;51.114;13.788;2023-03-19T23:49:48;99380.09;;;11.95;100.00
19672;BME280;9983;51.114;13.788;2023-03-19T23:54:48;99387.50;;;11.93;100.00
19672;BME280;9983;51.114;13.788;2023-03-19T23:59:49;99379.44;;;11.93;100.00
